Time;durP1;ratioP1;P1;durP2;ratioP2;P2;SDS_P1;SDS_P2;PMS_P1;PMS_P2;Temp;Humidity;BMP_temperature;BMP_pressure;BME280_temperature;BME280_humidity;BME280_pressure;Samples;Min_cycle;Max_cycle;Signal;HPM_P1;HPM_P2
2022/12/17 13:06:09;;;;;;;18.00;6.47;;;1.90;99.90;;;;;;4983027;28;20187;-78
2022/12/17 13:08:34;;;;;;;26.85;9.00;;;1.90;99.90;;;;;;5032206;28;20025;-78
2022/12/17 13:11:24;;;;;;;26.23;9.95;;;1.90;99.90;;;;;;5002845;28;20068;-77
2022/12/17 13:13:54;;;;;;;16.03;5.40;;;2.00;99.90;;;;;;5010929;28;20021;-78
2022/12/17 13:16:45;;;;;;;22.55;8.05;;;2.00;99.90;;;;;;4980843;28;20686;-78
2022/12/17 13:19:31;;;;;;;25.40;8.82;;;1.90;99.90;;;;;;4982843;28;20041;-78
2022/12/17 13:22:14;;;;;;;25.60;9.30;;;2.00;99.90;;;;;;4975962;28;20064;-77
2022/12/17 13:24:51;;;;;;;22.73;8.23;;;2.00;99.90;;;;;;4990508;28;20029;-78
2022/12/17 13:27:35;;;;;;;18.23;6.70;;;2.00;99.90;;;;;;4991671;28;20187;-78
2022/12/17 13:30:16;;;;;;;23.67;8.48;;;2.00;99.90;;;;;;5009359;28;21187;-78
2022/12/17 13:33:13;;;;;;;20.88;8.35;;;2.00;99.90;;;;;;5013503;28;20033;-78
2022/12/17 13:35:57;;;;;;;22.42;8.18;;;2.00;99.90;;;;;;4995145;28;20496;-78
2022/12/17 13:38:39;;;;;;;20.60;7.85;;;2.00;99.90;;;;;;4991329;28;20037;-78
2022/12/17 13:41:17;;;;;;;21.83;7.27;;;1.90;99.90;;;;;;4978595;28;20147;-78
2022/12/17 13:44:00;;;;;;;20.02;7.25;;;1.90;99.90;;;;;;5016125;28;20064;-78
2022/12/17 13:46:28;;;;;;;18.90;7.53;;;1.80;99.90;;;;;;4976591;28;20760;-78
2022/12/17 13:48:59;;;;;;;21.98;7.55;;;1.80;99.90;;;;;;4989010;28;20032;-77
2022/12/17 13:51:27;;;;;;;20.45;7.93;;;1.80;99.90;;;;;;4980840;28;20604;-78
2022/12/17 13:53:59;;;;;;;22.83;8.83;;;1.70;99.90;;;;;;4960276;28;21025;-78
2022/12/17 13:56:33;;;;;;;21.30;7.57;;;1.70;99.90;;;;;;5022242;28;20671;-78
2022/12/17 13:59:03;;;;;;;20.00;7.55;;;1.70;99.90;;;;;;5014705;28;20036;-78
2022/12/17 14:01:30;;;;;;;20.33;7.43;;;1.70;99.90;;;;;;5001534;28;20138;-78
2022/12/17 14:04:00;;;;;;;22.65;7.80;;;1.70;99.90;;;;;;4953589;28;20179;-78
2022/12/17 14:06:32;;;;;;;20.97;7.40;;;1.70;99.90;;;;;;4995560;28;20099;-78
2022/12/17 14:08:58;;;;;;;20.17;6.72;;;1.70;99.90;;;;;;5010102;28;20059;-78
2022/12/17 14:14:21;;;;;;;22.30;7.85;;;1.70;99.90;;;;;;5012248;28;20033;-78
2022/12/17 14:16:46;;;;;;;21.87;7.73;;;1.70;99.90;;;;;;4993766;28;20262;-78
2022/12/17 14:19:12;;;;;;;20.88;7.80;;;1.70;99.90;;;;;;4961443;28;20035;-78
2022/12/17 14:21:40;;;;;;;20.98;7.93;;;1.70;99.90;;;;;;4973014;28;20117;-78
2022/12/17 14:24:06;;;;;;;17.13;6.65;;;1.70;99.90;;;;;;4980025;28;20548;-78
2022/12/17 14:26:31;;;;;;;18.50;6.90;;;1.70;99.90;;;;;;5020125;28;20182;-78
2022/12/17 14:28:57;;;;;;;20.00;6.85;;;1.70;99.90;;;;;;5008982;28;20477;-78
2022/12/17 14:31:29;;;;;;;20.97;7.60;;;1.70;99.90;;;;;;5006076;28;20413;-78
2022/12/17 14:34:06;;;;;;;21.55;7.63;;;1.70;99.90;;;;;;5005029;28;20089;-78
2022/12/17 14:36:34;;;;;;;21.70;8.15;;;1.70;99.90;;;;;;4967332;28;20305;-78
2022/12/17 14:39:02;;;;;;;16.50;5.80;;;1.60;99.90;;;;;;4989797;28;20055;-78
2022/12/17 14:44:24;;;;;;;25.73;9.10;;;1.60;99.90;;;;;;5024307;28;20263;-78
2022/12/17 14:47:14;;;;;;;24.33;8.23;;;1.50;99.90;;;;;;4990306;28;20113;-78
2022/12/17 14:50:01;;;;;;;20.48;7.47;;;1.50;99.90;;;;;;4996525;28;20053;-78
2022/12/17 14:52:48;;;;;;;20.75;8.02;;;1.40;99.90;;;;;;4960920;28;20571;-78
2022/12/17 14:55:30;;;;;;;20.07;7.87;;;1.40;99.90;;;;;;4985583;28;20673;-78
2022/12/17 14:58:10;;;;;;;19.48;6.85;;;1.40;99.90;;;;;;5003326;28;20060;-78
2022/12/17 15:00:42;;;;;;;19.77;7.45;;;1.30;99.90;;;;;;4998546;28;20179;-78
2022/12/17 15:03:26;;;;;;;18.92;7.55;;;1.30;99.90;;;;;;5005367;28;20029;-78
2022/12/17 15:06:03;;;;;;;21.35;7.90;;;1.30;99.90;;;;;;4978066;28;20057;-78
2022/12/17 15:08:32;;;;;;;16.27;6.40;;;1.30;99.90;;;;;;4917185;28;20030;-78
2022/12/17 15:10:58;;;;;;;19.98;7.38;;;1.30;99.90;;;;;;4985401;28;20100;-78
2022/12/17 15:13:23;;;;;;;18.90;6.90;;;1.30;99.90;;;;;;4982640;28;20033;-78
2022/12/17 15:15:49;;;;;;;19.80;6.50;;;1.30;99.90;;;;;;4974318;28;20037;-78
2022/12/17 15:18:15;;;;;;;20.30;7.30;;;1.20;99.90;;;;;;4978420;28;20022;-78
2022/12/17 15:20:40;;;;;;;17.57;6.60;;;1.20;99.90;;;;;;4991604;28;20033;-78
2022/12/17 15:23:14;;;;;;;21.50;7.97;;;1.20;99.90;;;;;;4954698;28;20029;-78
2022/12/17 15:25:40;;;;;;;18.85;7.05;;;1.10;99.90;;;;;;4950304;28;20033;-78
2022/12/17 15:28:06;;;;;;;21.17;7.67;;;1.10;99.90;;;;;;4980742;28;20219;-78
2022/12/17 15:30:32;;;;;;;19.20;7.50;;;1.10;99.90;;;;;;4966776;28;20113;-78
2022/12/17 15:32:58;;;;;;;18.60;7.17;;;1.00;99.90;;;;;;4989150;28;20021;-78
2022/12/17 15:35:24;;;;;;;19.48;7.75;;;1.00;99.90;;;;;;4999034;28;20265;-78
2022/12/17 15:37:50;;;;;;;21.90;7.32;;;1.00;99.90;;;;;;4974222;28;20029;-78
2022/12/17 15:40:16;;;;;;;24.13;8.82;;;1.00;99.90;;;;;;4958034;28;20040;-78
2022/12/17 15:45:26;;;;;;;21.45;7.28;;;0.90;99.90;;;;;;5003513;28;20037;-78
2022/12/17 15:47:52;;;;;;;18.90;7.20;;;1.00;99.90;;;;;;4964358;28;20317;-80
2022/12/17 15:50:18;;;;;;;22.02;8.07;;;0.90;99.90;;;;;;4994718;28;20531;-78
2022/12/17 15:52:43;;;;;;;21.70;7.90;;;0.90;99.90;;;;;;4964490;28;20072;-78
2022/12/17 15:55:11;;;;;;;22.83;8.53;;;0.90;99.90;;;;;;4978133;28;20053;-78
2022/12/17 15:57:36;;;;;;;19.17;7.30;;;0.90;99.90;;;;;;4970685;28;20234;-78
2022/12/17 16:00:03;;;;;;;19.63;7.03;;;0.90;99.90;;;;;;4947089;28;20052;-79
2022/12/17 16:02:29;;;;;;;18.60;7.25;;;0.90;99.90;;;;;;4978907;28;20096;-80
2022/12/17 16:04:54;;;;;;;19.40;7.20;;;0.90;99.90;;;;;;4986236;28;20465;-80
2022/12/17 16:07:20;;;;;;;20.80;7.37;;;0.90;99.90;;;;;;4990549;28;20327;-79
2022/12/17 16:09:46;;;;;;;14.73;5.50;;;0.90;99.90;;;;;;4991284;28;20041;-80
2022/12/17 16:12:11;;;;;;;17.85;6.97;;;0.90;99.90;;;;;;4923581;28;20397;-79
2022/12/17 16:14:37;;;;;;;20.30;7.68;;;0.90;99.90;;;;;;4969702;28;20025;-78
2022/12/17 16:17:03;;;;;;;19.93;7.87;;;0.90;99.90;;;;;;5000845;28;20458;-78
2022/12/17 16:19:29;;;;;;;19.35;7.45;;;0.90;99.90;;;;;;4968302;28;20041;-78
2022/12/17 16:21:55;;;;;;;18.70;6.53;;;0.90;99.90;;;;;;4998871;28;20053;-78
2022/12/17 16:24:20;;;;;;;17.25;6.85;;;0.80;99.90;;;;;;4971545;28;20047;-78
2022/12/17 16:26:46;;;;;;;28.77;8.80;;;0.80;99.90;;;;;;4946667;28;20029;-78
2022/12/17 16:29:12;;;;;;;19.27;7.20;;;0.80;99.90;;;;;;4990928;28;20037;-78
2022/12/17 16:31:37;;;;;;;17.00;6.77;;;0.70;99.90;;;;;;4995573;28;20025;-78
2022/12/17 16:34:08;;;;;;;17.40;6.38;;;0.70;99.90;;;;;;5000566;28;20037;-78
2022/12/17 16:36:34;;;;;;;18.13;6.60;;;0.70;99.90;;;;;;4970652;28;20103;-80
2022/12/17 16:39:00;;;;;;;19.23;7.10;;;0.70;99.90;;;;;;4994226;28;20085;-80
2022/12/17 16:41:26;;;;;;;19.73;6.72;;;0.70;99.90;;;;;;4938865;28;20021;-78
2022/12/17 16:43:51;;;;;;;28.30;9.60;;;0.70;99.90;;;;;;4988973;28;20233;-78
2022/12/17 16:46:25;;;;;;;16.60;6.28;;;0.70;99.90;;;;;;5000515;28;20057;-78
2022/12/17 16:48:52;;;;;;;21.15;7.80;;;0.70;99.90;;;;;;5004745;28;20066;-78
2022/12/17 16:51:20;;;;;;;24.10;8.47;;;0.70;99.90;;;;;;4996015;28;20036;-78
2022/12/17 16:53:46;;;;;;;19.42;6.10;;;0.60;99.90;;;;;;5010907;28;20112;-78
2022/12/17 16:56:23;;;;;;;21.33;7.40;;;0.70;99.90;;;;;;4938558;28;20115;-78
2022/12/17 16:58:49;;;;;;;20.10;7.13;;;0.60;99.90;;;;;;4976566;28;20077;-78
2022/12/17 17:01:19;;;;;;;19.97;7.47;;;0.60;99.90;;;;;;4949724;28;20322;-78
2022/12/17 17:03:45;;;;;;;20.67;7.50;;;0.60;99.90;;;;;;4974412;28;20025;-78
2022/12/17 17:06:11;;;;;;;17.55;6.57;;;0.60;99.90;;;;;;4978613;28;20092;-78
2022/12/17 17:08:38;;;;;;;21.83;7.70;;;0.60;99.90;;;;;;5025707;28;20360;-78
2022/12/17 17:11:10;;;;;;;18.30;6.82;;;0.60;99.90;;;;;;4990968;28;20918;-78
2022/12/17 17:13:36;;;;;;;21.15;6.88;;;0.60;99.90;;;;;;4972953;28;20033;-78
2022/12/17 17:16:03;;;;;;;18.95;6.90;;;0.60;99.90;;;;;;4996801;28;20036;-78
2022/12/17 17:18:28;;;;;;;18.48;7.30;;;0.60;99.90;;;;;;5004735;28;20322;-78
2022/12/17 17:20:54;;;;;;;19.20;6.80;;;0.60;99.90;;;;;;5019230;28;20397;-78
2022/12/17 17:23:20;;;;;;;19.67;6.67;;;0.70;99.90;;;;;;4992304;28;20032;-78
2022/12/17 17:25:46;;;;;;;20.42;7.57;;;0.60;99.90;;;;;;4993368;28;20033;-78
2022/12/17 17:28:12;;;;;;;19.63;6.90;;;0.60;99.90;;;;;;5004662;28;20041;-78
2022/12/17 17:30:38;;;;;;;22.20;6.85;;;0.60;99.90;;;;;;5018589;28;20106;-78
2022/12/17 17:33:04;;;;;;;17.67;6.33;;;0.70;99.90;;;;;;4971693;28;20044;-78
2022/12/17 17:35:29;;;;;;;19.27;7.25;;;0.60;99.90;;;;;;4999805;28;20024;-78
2022/12/17 17:37:55;;;;;;;18.70;6.93;;;0.60;99.90;;;;;;5005573;28;20044;-78
2022/12/17 17:40:21;;;;;;;17.77;5.85;;;0.60;99.90;;;;;;5001474;28;20059;-77
2022/12/17 17:42:46;;;;;;;16.40;6.33;;;0.60;99.90;;;;;;4959774;28;20086;-78
2022/12/17 17:45:12;;;;;;;16.13;6.30;;;0.60;99.90;;;;;;5034053;28;20032;-78
2022/12/17 17:47:38;;;;;;;17.55;6.43;;;0.60;99.90;;;;;;4972975;28;20294;-78
2022/12/17 17:50:04;;;;;;;16.65;6.03;;;0.50;99.90;;;;;;5018215;28;20063;-78
2022/12/17 17:52:30;;;;;;;15.20;5.83;;;0.50;99.90;;;;;;5018811;28;20051;-78
2022/12/17 17:54:55;;;;;;;16.25;6.07;;;0.50;99.90;;;;;;5038979;28;20358;-78
2022/12/17 17:57:21;;;;;;;21.23;7.80;;;0.50;99.90;;;;;;4989671;28;20401;-78
2022/12/17 17:59:47;;;;;;;17.90;7.30;;;0.50;99.90;;;;;;4956185;28;20524;-78
2022/12/17 18:02:12;;;;;;;20.00;6.50;;;0.40;99.90;;;;;;5024646;28;20029;-78
2022/12/17 18:04:38;;;;;;;14.33;5.43;;;0.40;99.90;;;;;;4967553;28;20600;-78
2022/12/17 18:07:04;;;;;;;18.15;6.25;;;0.40;99.90;;;;;;5022873;28;22801;-78
2022/12/17 18:09:30;;;;;;;16.13;5.55;;;0.40;99.90;;;;;;5004490;28;20107;-78
2022/12/17 18:11:55;;;;;;;19.13;6.37;;;0.40;99.90;;;;;;4987061;28;20764;-78
2022/12/17 18:14:21;;;;;;;18.83;7.22;;;0.40;99.90;;;;;;5002717;28;20064;-78
2022/12/17 18:16:47;;;;;;;21.30;7.73;;;0.40;99.90;;;;;;4993155;28;20052;-78
2022/12/17 18:19:18;;;;;;;17.45;7.10;;;0.40;99.90;;;;;;4998647;28;20112;-78
2022/12/17 18:21:44;;;;;;;14.65;5.35;;;0.40;99.90;;;;;;5006069;28;20509;-78
2022/12/17 18:24:17;;;;;;;14.55;5.18;;;0.40;99.90;;;;;;5003865;28;20474;-78
2022/12/17 18:26:44;;;;;;;16.07;6.30;;;0.40;99.90;;;;;;5031283;28;20170;-78
2022/12/17 18:29:25;;;;;;;15.98;6.00;;;0.40;99.90;;;;;;4979868;28;20149;-80
2022/12/17 18:31:51;;;;;;;19.15;7.07;;;0.30;99.90;;;;;;4971628;28;20063;-80
2022/12/17 18:34:20;;;;;;;17.70;6.57;;;0.30;99.90;;;;;;4980318;28;20021;-80
2022/12/17 18:36:47;;;;;;;17.75;5.57;;;0.30;99.90;;;;;;5011494;28;20194;-79
2022/12/17 18:39:22;;;;;;;16.43;5.97;;;0.30;99.90;;;;;;5003086;28;20027;-79
2022/12/17 18:44:37;;;;;;;20.42;6.97;;;0.30;99.90;;;;;;5001036;28;20021;-79
2022/12/17 18:47:03;;;;;;;21.35;7.00;;;0.30;99.90;;;;;;5002011;28;20472;-79
2022/12/17 18:49:29;;;;;;;14.83;6.20;;;0.20;99.90;;;;;;4999943;28;20056;-78
2022/12/17 18:51:55;;;;;;;16.80;6.32;;;0.20;99.90;;;;;;5009724;28;20032;-78
2022/12/17 18:54:26;;;;;;;13.48;5.70;;;0.20;99.90;;;;;;5002372;28;20033;-78
2022/12/17 18:56:53;;;;;;;15.10;6.03;;;0.20;99.90;;;;;;4991223;28;20029;-78
2022/12/17 18:59:20;;;;;;;16.33;5.88;;;0.20;99.90;;;;;;4987768;28;20033;-78
2022/12/17 19:01:47;;;;;;;18.05;6.55;;;0.20;99.90;;;;;;4972526;28;20025;-78
2022/12/17 19:04:16;;;;;;;15.93;6.25;;;0.20;99.90;;;;;;5005627;28;20083;-78
2022/12/17 19:06:42;;;;;;;16.80;6.00;;;0.20;99.90;;;;;;4979035;28;20033;-78
2022/12/17 19:09:20;;;;;;;14.23;4.73;;;0.20;99.90;;;;;;5004992;28;20046;-78
2022/12/17 19:11:46;;;;;;;16.83;5.93;;;0.20;99.90;;;;;;4983412;28;20059;-78
2022/12/17 19:14:12;;;;;;;22.48;6.95;;;0.20;99.90;;;;;;5008642;28;20440;-78
2022/12/17 19:16:38;;;;;;;19.43;6.67;;;0.20;99.90;;;;;;4974940;28;20023;-78
2022/12/17 19:19:04;;;;;;;16.93;6.10;;;0.20;99.90;;;;;;4998346;28;20318;-78
2022/12/17 19:21:32;;;;;;;17.45;6.53;;;0.20;99.90;;;;;;5003861;28;20135;-78
2022/12/17 19:24:00;;;;;;;21.58;7.68;;;0.20;99.90;;;;;;4967268;28;20323;-78
2022/12/17 19:26:27;;;;;;;18.65;7.07;;;0.20;99.90;;;;;;4990730;28;20132;-78
2022/12/17 19:28:55;;;;;;;20.30;7.60;;;0.20;99.90;;;;;;5002188;28;20250;-78
2022/12/17 19:31:23;;;;;;;19.08;6.63;;;0.20;99.90;;;;;;4994889;28;20021;-78
2022/12/17 19:33:56;;;;;;;18.98;6.30;;;0.20;99.90;;;;;;4989968;28;20147;-78
2022/12/17 19:36:23;;;;;;;16.75;6.00;;;0.20;99.90;;;;;;5016465;28;20064;-78
2022/12/17 19:38:53;;;;;;;19.13;6.70;;;0.20;99.90;;;;;;4987026;28;20281;-78
2022/12/17 19:41:20;;;;;;;20.63;6.57;;;0.20;99.90;;;;;;5014649;28;20048;-78
2022/12/17 19:43:51;;;;;;;19.02;6.75;;;0.20;99.90;;;;;;5018480;28;20021;-78
2022/12/17 19:46:18;;;;;;;19.08;6.25;;;0.20;99.90;;;;;;4990751;28;20126;-78
2022/12/17 19:48:45;;;;;;;16.55;5.78;;;0.20;99.90;;;;;;5000812;28;20765;-78
2022/12/17 19:51:13;;;;;;;16.45;7.15;;;0.20;99.90;;;;;;4985050;28;20531;-78
2022/12/17 19:53:40;;;;;;;20.93;6.90;;;0.20;99.90;;;;;;4988758;28;20064;-79
2022/12/17 19:56:13;;;;;;;20.67;7.18;;;0.20;99.90;;;;;;5005161;28;20504;-78
2022/12/17 19:58:39;;;;;;;15.90;5.57;;;0.20;99.90;;;;;;5023357;28;20047;-78
2022/12/17 20:01:09;;;;;;;17.55;6.47;;;0.20;99.90;;;;;;5009955;28;20544;-78
2022/12/17 20:03:36;;;;;;;15.88;5.80;;;0.10;99.90;;;;;;5008984;28;20091;-78
2022/12/17 20:06:04;;;;;;;18.50;6.03;;;0.10;99.90;;;;;;4988828;28;20059;-78
2022/12/17 20:08:30;;;;;;;13.02;5.22;;;0.10;99.90;;;;;;4969941;28;20037;-78
2022/12/17 20:10:56;;;;;;;17.42;5.85;;;0.10;99.90;;;;;;5011013;28;20891;-78
2022/12/17 20:13:22;;;;;;;16.55;5.95;;;0.10;99.90;;;;;;5019762;28;20033;-78
2022/12/17 20:15:57;;;;;;;15.73;5.70;;;0.10;99.90;;;;;;4989158;28;22853;-78
2022/12/17 20:18:22;;;;;;;18.43;6.93;;;0.00;99.90;;;;;;4969254;28;20017;-78
2022/12/17 20:20:48;;;;;;;17.30;6.40;;;0.00;99.90;;;;;;4950904;28;20579;-78
2022/12/17 20:23:14;;;;;;;15.13;6.03;;;0.00;99.90;;;;;;5014453;28;20085;-78
2022/12/17 20:25:40;;;;;;;14.63;5.20;;;-0.10;99.90;;;;;;4993318;28;20051;-78
2022/12/17 20:28:05;;;;;;;18.03;5.47;;;-0.10;99.90;;;;;;5012035;28;20028;-78
2022/12/17 20:30:31;;;;;;;17.55;6.75;;;-0.10;99.90;;;;;;5007856;28;20120;-78
2022/12/17 20:32:56;;;;;;;14.87;5.83;;;-0.10;99.90;;;;;;4959357;28;20342;-78
2022/12/17 20:35:22;;;;;;;19.70;6.85;;;-0.10;99.90;;;;;;5010710;28;20479;-78
2022/12/17 20:37:48;;;;;;;17.67;6.50;;;-0.10;99.90;;;;;;4967391;28;20063;-78
2022/12/17 20:40:14;;;;;;;15.52;5.47;;;-0.20;99.90;;;;;;4973891;28;20481;-78
2022/12/17 20:42:39;;;;;;;19.17;6.50;;;-0.10;99.90;;;;;;5000673;28;20593;-78
2022/12/17 20:45:05;;;;;;;17.77;6.60;;;-0.20;99.90;;;;;;4965002;28;20828;-78
2022/12/17 20:47:31;;;;;;;16.25;6.32;;;-0.20;99.90;;;;;;4966034;28;20108;-78
2022/12/17 20:49:57;;;;;;;17.67;6.13;;;-0.20;99.90;;;;;;4955666;28;20057;-78
2022/12/17 20:52:22;;;;;;;19.48;6.70;;;-0.20;99.90;;;;;;4935961;28;20483;-78
2022/12/17 20:54:48;;;;;;;20.23;7.17;;;-0.30;99.90;;;;;;4963981;28;20239;-78
2022/12/17 20:57:14;;;;;;;19.27;6.63;;;-0.30;99.90;;;;;;4983367;28;20054;-78
2022/12/17 20:59:40;;;;;;;18.10;7.00;;;-0.30;99.90;;;;;;4967438;28;20124;-78
2022/12/17 21:02:06;;;;;;;16.93;6.23;;;-0.30;99.90;;;;;;4971829;28;20053;-78
2022/12/17 21:04:32;;;;;;;19.83;6.97;;;-0.30;99.90;;;;;;4948920;28;20836;-78
2022/12/17 21:06:57;;;;;;;24.42;8.70;;;-0.30;99.90;;;;;;4940314;28;20494;-78
2022/12/17 21:09:24;;;;;;;20.77;6.80;;;-0.30;99.90;;;;;;4968774;28;20043;-78
2022/12/17 21:11:50;;;;;;;20.80;7.25;;;-0.30;99.90;;;;;;4953826;28;20507;-78
2022/12/17 21:14:17;;;;;;;21.10;7.40;;;-0.40;99.90;;;;;;4954588;28;20031;-77
2022/12/17 21:16:43;;;;;;;19.08;6.63;;;-0.40;99.90;;;;;;4961436;28;20272;-78
2022/12/17 21:19:12;;;;;;;16.07;6.83;;;-0.40;99.90;;;;;;4965577;28;20034;-78
2022/12/17 21:21:38;;;;;;;17.77;6.97;;;-0.50;99.80;;;;;;4920905;28;20312;-78
2022/12/17 21:24:05;;;;;;;20.65;7.75;;;-0.50;99.80;;;;;;4942958;28;20034;-78
2022/12/17 21:26:36;;;;;;;19.92;7.30;;;-0.50;99.70;;;;;;4921119;28;20068;-78
2022/12/17 21:29:04;;;;;;;18.55;7.45;;;-0.60;99.60;;;;;;4969303;28;20025;-78
2022/12/17 21:31:36;;;;;;;20.53;7.37;;;-0.60;99.50;;;;;;4979908;28;20010;-78
2022/12/17 21:34:04;;;;;;;22.73;8.25;;;-0.70;99.40;;;;;;5002030;28;20018;-78
2022/12/17 21:36:31;;;;;;;20.25;7.22;;;-0.70;99.40;;;;;;4969058;28;20018;-77
2022/12/17 21:38:58;;;;;;;20.45;7.65;;;-0.70;99.30;;;;;;4955866;28;20083;-78
2022/12/17 21:41:27;;;;;;;22.02;7.72;;;-0.80;99.20;;;;;;4966793;28;20034;-78
2022/12/17 21:43:58;;;;;;;19.80;7.37;;;-0.80;99.20;;;;;;4986569;28;20073;-78
2022/12/17 21:46:26;;;;;;;18.38;7.18;;;-0.80;99.10;;;;;;4975103;28;20406;-78
2022/12/17 21:48:52;;;;;;;19.83;7.25;;;-0.90;99.00;;;;;;4994954;28;20362;-78
2022/12/17 21:51:19;;;;;;;19.83;7.07;;;-0.90;99.00;;;;;;4976795;28;20403;-78
2022/12/17 21:53:45;;;;;;;21.05;7.63;;;-1.00;98.90;;;;;;4951663;28;21160;-78
2022/12/17 21:56:13;;;;;;;20.43;7.40;;;-1.00;98.90;;;;;;4997811;28;20683;-78
2022/12/17 21:58:40;;;;;;;17.50;7.60;;;-1.00;98.90;;;;;;4940071;28;20426;-78
2022/12/17 22:01:23;;;;;;;19.17;6.78;;;-1.00;98.80;;;;;;4961975;28;20022;-78
2022/12/17 22:03:50;;;;;;;21.02;7.70;;;-1.10;98.70;;;;;;5006541;28;20561;-78
2022/12/17 22:06:18;;;;;;;21.27;7.40;;;-1.10;98.70;;;;;;4986546;28;20597;-78
2022/12/17 22:08:45;;;;;;;21.02;7.93;;;-1.20;98.60;;;;;;4942190;28;20486;-78
2022/12/17 22:11:14;;;;;;;21.85;8.55;;;-1.20;98.60;;;;;;4963327;28;21678;-78
2022/12/17 22:16:26;;;;;;;19.35;7.95;;;-1.20;98.60;;;;;;4990984;28;20026;-78
2022/12/17 22:18:52;;;;;;;18.77;7.53;;;-1.20;98.60;;;;;;4974841;28;20041;-78
2022/12/17 22:21:19;;;;;;;22.58;7.90;;;-1.30;98.60;;;;;;4985869;28;20030;-78
2022/12/17 22:23:46;;;;;;;22.58;8.60;;;-1.30;98.60;;;;;;4978435;28;20042;-78
2022/12/17 22:26:14;;;;;;;21.92;8.73;;;-1.30;98.60;;;;;;4971937;28;20064;-78
2022/12/17 22:28:47;;;;;;;23.35;8.25;;;-1.30;98.60;;;;;;4977908;28;20065;-78
2022/12/17 22:33:59;;;;;;;23.33;8.70;;;-1.40;98.40;;;;;;5007497;28;20602;-78
2022/12/17 22:36:27;;;;;;;18.00;7.30;;;-1.40;98.40;;;;;;5006361;28;20017;-78
2022/12/17 22:38:53;;;;;;;20.20;8.03;;;-1.50;98.30;;;;;;4964057;28;20021;-78
2022/12/17 22:44:04;;;;;;;18.90;7.57;;;-1.50;98.30;;;;;;4998705;28;20350;-78
2022/12/17 22:46:30;;;;;;;21.65;8.20;;;-1.50;98.20;;;;;;4979800;28;20034;-78
2022/12/17 22:48:57;;;;;;;24.45;9.07;;;-1.60;98.20;;;;;;4984019;28;20021;-78
2022/12/17 22:51:24;;;;;;;24.73;9.23;;;-1.60;98.20;;;;;;4994689;28;20025;-78
2022/12/17 22:53:51;;;;;;;25.33;9.27;;;-1.60;98.20;;;;;;4993144;28;20061;-78
2022/12/17 22:56:18;;;;;;;23.88;9.27;;;-1.70;98.20;;;;;;4966252;28;20445;-78
2022/12/17 22:58:44;;;;;;;24.73;8.82;;;-1.70;98.20;;;;;;4987948;28;20075;-78
2022/12/17 23:01:11;;;;;;;19.98;7.80;;;-1.70;98.20;;;;;;4996796;28;20379;-78
2022/12/17 23:03:37;;;;;;;23.50;9.00;;;-1.70;98.20;;;;;;5000832;28;20030;-78
2022/12/17 23:06:14;;;;;;;23.85;9.38;;;-1.80;98.20;;;;;;4991927;28;20049;-78
2022/12/17 23:08:41;;;;;;;21.67;8.20;;;-1.80;98.20;;;;;;4989223;28;20026;-78
2022/12/17 23:11:13;;;;;;;23.58;8.65;;;-1.80;98.20;;;;;;4959669;28;20025;-78
2022/12/17 23:13:39;;;;;;;20.17;7.93;;;-1.80;98.20;;;;;;4965008;28;20034;-78
2022/12/17 23:16:05;;;;;;;21.33;7.93;;;-1.90;98.10;;;;;;5000264;28;20469;-78
2022/12/17 23:18:31;;;;;;;19.67;7.90;;;-1.90;98.00;;;;;;4995135;28;20029;-78
2022/12/17 23:21:06;;;;;;;21.65;7.90;;;-1.90;98.00;;;;;;4987431;28;20045;-78
2022/12/17 23:23:32;;;;;;;22.67;8.52;;;-1.90;97.90;;;;;;4994093;28;20536;-78
2022/12/17 23:25:57;;;;;;;21.13;8.20;;;-1.90;97.90;;;;;;4985283;28;20022;-78
2022/12/17 23:28:23;;;;;;;23.38;8.40;;;-2.00;98.00;;;;;;4950907;28;20026;-78
2022/12/17 23:30:49;;;;;;;20.43;7.20;;;-1.90;98.10;;;;;;4981884;28;20389;-81
2022/12/17 23:33:14;;;;;;;18.00;7.20;;;-1.90;98.10;;;;;;4982607;28;20517;-81
2022/12/17 23:35:40;;;;;;;19.37;7.80;;;-2.00;97.90;;;;;;5009304;28;20647;-78
2022/12/17 23:38:06;;;;;;;21.80;8.27;;;-2.00;97.80;;;;;;5003085;28;20327;-78
2022/12/17 23:40:32;;;;;;;18.85;7.32;;;-2.00;97.60;;;;;;4974194;28;20104;-78
2022/12/17 23:42:59;;;;;;;20.33;8.38;;;-2.00;97.40;;;;;;4960195;28;21102;-78
2022/12/17 23:45:25;;;;;;;27.60;9.87;;;-2.10;97.10;;;;;;4969609;28;20049;-78
2022/12/17 23:47:50;;;;;;;24.05;9.60;;;-2.10;96.90;;;;;;4988519;28;20124;-78
2022/12/17 23:50:16;;;;;;;23.45;9.00;;;-2.10;96.70;;;;;;4982067;28;20026;-78
2022/12/17 23:52:42;;;;;;;21.37;9.00;;;-2.20;96.50;;;;;;4987559;28;20026;-78
2022/12/17 23:55:09;;;;;;;19.15;7.60;;;-2.20;96.40;;;;;;4991750;28;20057;-78
2022/12/17 23:57:36;;;;;;;19.23;8.00;;;-2.30;96.20;;;;;;5000124;28;20566;-78
